Terminal Aerodrome Forecast
Issued by NWS

Home | Current Version | Previous Version | Text Only | Print | Product List | Glossary On
Versions: 1 2 3 4 5 6 7 8 9 10 11 12 13 14 15 16 17 18 19 20 21
000
FTUS41 KRLX 270552
TAFCKB
TAF
KCKB 270552Z 2706/2806 19006KT 6SM SHRA BR VCTS BKN045CB
     FM270700 19005KT 5SM SHRA BR VCTS BKN040CB
     FM271100 21005KT P6SM BKN025
     FM271700 23007KT P6SM BKN035
     FM272000 22007KT P6SM SCT040
     FM280200 VRB03KT P6SM FEW040=

USA.gov is the U.S. government's official web portal to all federal, state and local government web resources and services.